Pacific Hope — 3FLH6 — position and weather

sailwx.info

Track history (hours):
 
Tides and Currents Weather Stations Pressure Air Temp Water Temp Dewpoint Dewpoint Depression Visibility Wind Speed Wind Dir Waves Ship Positions

Pacific Hope

Last reported at 2014-Aug-16 18:29 UTC. Time now 2014-Sep-15 02:01 UTC.
Position S 29°40' E 015°41'.
Warning: this ship's position is 29 days out of date.

Length 169 m; draft 10.1 m.

Type: Ship. MMSI: 351849000.

Date/timePositionNaut miles runAvg speedWind from/ knotsBaromVisibWave heightAir tempDewpointWater temp
2014-Aug-16 18:29S 29°40' E 015°41'1512.4
2014-Aug-16 17:14S 29°54' E 015°47'2512.2
2014-Aug-16 15:13S 30°17' E 015°58'21312.7
2014-Aug-15 22:22S 33°35' E 017°30'1513.1
2014-Aug-15 21:13S 33°49' E 017°37'2112.5
2014-Aug-15 19:33S 34°06' E 017°52'1512.9
2014-Aug-15 18:22S 34°15' E 018°07'1212.9
2014-Aug-15 17:28S 34°22' E 018°18'1312.8
2014-Aug-15 16:27S 34°30' E 018°31'1112.6
2014-Aug-15 15:33S 34°35' E 018°42'1312.1
2014-Aug-15 14:31S 34°40' E 018°57'1612.0
2014-Aug-15 13:12S 34°47' E 019°14'14411.2
2014-Aug-15 00:25S 34°47' E 022°09'23610.1
2014-Aug-14 01:05S 33°58' E 026°49'813.3
2014-Aug-14 00:27S 33°55' E 026°59'  
Track history (hours):
 
Tides and Currents Weather Stations Pressure Air Temp Water Temp Dewpoint Dewpoint Depression Visibility Wind Speed Wind Dir Waves Ship Positions

Pacific Hope

Last reported at 2014-Aug-16 18:29 UTC. Time now 2014-Sep-15 02:01 UTC.
Position S 29°40' E 015°41'.
Warning: this ship's position is 29 days out of date.

Length 169 m; draft 10.1 m.

Type: Ship. MMSI: 351849000.

Date/timePositionNaut miles runAvg speedWind from/ knotsBaromVisibWave heightAir tempDewpointWater temp
2014-Aug-16 18:29S 29°40' E 015°41'1512.4
2014-Aug-16 17:14S 29°54' E 015°47'2512.2
2014-Aug-16 15:13S 30°17' E 015°58'21312.7
2014-Aug-15 22:22S 33°35' E 017°30'1513.1
2014-Aug-15 21:13S 33°49' E 017°37'2112.5
2014-Aug-15 19:33S 34°06' E 017°52'1512.9
2014-Aug-15 18:22S 34°15' E 018°07'1212.9
2014-Aug-15 17:28S 34°22' E 018°18'1312.8
2014-Aug-15 16:27S 34°30' E 018°31'1112.6
2014-Aug-15 15:33S 34°35' E 018°42'1312.1
2014-Aug-15 14:31S 34°40' E 018°57'1612.0
2014-Aug-15 13:12S 34°47' E 019°14'14411.2
2014-Aug-15 00:25S 34°47' E 022°09'23610.1
2014-Aug-14 01:05S 33°58' E 026°49'813.3
2014-Aug-14 00:27S 33°55' E 026°59'  

Dump ship's entire track history